Time;durP1;ratioP1;P1;durP2;ratioP2;P2;SDS_P1;SDS_P2;PMS_P1;PMS_P2;Temp;Humidity;BMP_temperature;BMP_pressure;BME280_temperature;BME280_humidity;BME280_pressure;Samples;Min_cycle;Max_cycle;Signal;HPM_P1;HPM_P2
2021/01/30 00:01:02;;;;;;;;;;;9.00;99.90;;;;;;10532498;28;19928;-69
2021/01/30 00:06:04;;;;;;;;;;;9.10;99.90;;;;;;10532080;28;19971;-68
2021/01/30 00:11:06;;;;;;;;;;;9.00;99.90;;;;;;10530826;28;19928;-69
2021/01/30 00:16:07;;;;;;;;;;;9.00;99.90;;;;;;10531810;28;20402;-68
2021/01/30 00:21:10;;;;;;;;;;;9.00;99.90;;;;;;10531721;28;20011;-68
2021/01/30 00:26:11;;;;;;;;;;;8.90;99.90;;;;;;10531165;28;20000;-69
2021/01/30 00:31:12;;;;;;;;;;;8.90;99.90;;;;;;10529693;27;20307;-68
2021/01/30 00:36:14;;;;;;;;;;;8.80;99.90;;;;;;10531572;28;19928;-68
2021/01/30 00:41:15;;;;;;;;;;;8.80;99.90;;;;;;10530663;28;19924;-68
2021/01/30 00:46:17;;;;;;;;;;;8.80;99.90;;;;;;10530373;28;19928;-68
2021/01/30 00:51:21;;;;;;;;;;;8.70;99.90;;;;;;10562788;27;19932;-68
2021/01/30 00:56:23;;;;;;;;;;;8.70;99.90;;;;;;10529291;28;20442;-69
2021/01/30 01:01:24;;;;;;;;;;;8.70;99.90;;;;;;10529284;28;19963;-69
2021/01/30 01:06:25;;;;;;;;;;;8.80;99.90;;;;;;10530177;28;20324;-68
2021/01/30 01:11:27;;;;;;;;;;;8.80;99.90;;;;;;10529948;28;20349;-68
2021/01/30 01:16:28;;;;;;;;;;;8.80;99.90;;;;;;10529465;28;19950;-69
2021/01/30 01:21:30;;;;;;;;;;;8.80;99.90;;;;;;10529489;28;19932;-68
2021/01/30 01:26:31;;;;;;;;;;;8.80;99.90;;;;;;10528551;28;20052;-68
2021/01/30 01:31:32;;;;;;;;;;;8.80;99.90;;;;;;10529393;28;20014;-68
2021/01/30 01:36:34;;;;;;;;;;;8.90;99.90;;;;;;10529409;28;20288;-68
2021/01/30 01:41:36;;;;;;;;;;;8.90;99.90;;;;;;10529151;28;19930;-68
2021/01/30 01:46:39;;;;;;;;;;;9.00;99.90;;;;;;10528211;28;20367;-68
2021/01/30 01:51:46;;;;;;;;;;;9.00;99.90;;;;;;10542849;28;20018;-68
2021/01/30 01:56:51;;;;;;;;;;;9.10;99.90;;;;;;10529010;28;19982;-68
2021/01/30 02:01:53;;;;;;;;;;;9.10;99.90;;;;;;10529263;28;19998;-68
2021/01/30 02:06:55;;;;;;;;;;;9.10;99.90;;;;;;10527359;28;19963;-69
2021/01/30 02:11:59;;;;;;;;;;;9.10;99.90;;;;;;10528877;28;19990;-68
2021/01/30 02:17:12;;;;;;;;;;;9.00;99.90;;;;;;10528522;28;19965;-68
2021/01/30 02:22:13;;;;;;;;;;;9.00;99.90;;;;;;10528440;28;19924;-68
2021/01/30 02:27:18;;;;;;;;;;;9.00;99.90;;;;;;10528393;28;19924;-68
2021/01/30 02:32:38;;;;;;;;;;;8.90;99.90;;;;;;10527562;28;19970;-68
2021/01/30 02:37:45;;;;;;;;;;;8.80;99.90;;;;;;10528687;28;19932;-68
2021/01/30 02:43:03;;;;;;;;;;;8.70;99.90;;;;;;10526397;28;19963;-69
2021/01/30 02:48:09;;;;;;;;;;;8.80;99.90;;;;;;10528218;28;19930;-68
2021/01/30 02:53:15;;;;;;;;;;;8.70;99.90;;;;;;10528321;28;20257;-68
2021/01/30 02:58:17;;;;;;;;;;;8.60;99.90;;;;;;10534885;28;19985;-68
2021/01/30 03:03:18;;;;;;;;;;;8.40;99.90;;;;;;10537230;28;20388;-68
2021/01/30 03:08:24;;;;;;;;;;;8.20;99.90;;;;;;10540700;28;19956;-68
2021/01/30 03:13:29;;;;;;;;;;;8.20;99.90;;;;;;10541419;28;19997;-68
2021/01/30 03:18:32;;;;;;;;;;;8.40;99.90;;;;;;10541457;28;20273;-68
2021/01/30 03:23:34;;;;;;;;;;;8.50;99.90;;;;;;10541461;28;19924;-68
2021/01/30 03:28:36;;;;;;;;;;;8.50;99.90;;;;;;10540311;28;19924;-68
2021/01/30 03:33:37;;;;;;;;;;;8.50;99.90;;;;;;10541243;28;20265;-68
2021/01/30 03:38:38;;;;;;;;;;;8.50;99.90;;;;;;10540787;28;19924;-68
2021/01/30 03:43:40;;;;;;;;;;;8.50;99.90;;;;;;10540191;28;19947;-68
2021/01/30 03:48:41;;;;;;;;;;;8.50;99.90;;;;;;10540129;28;20019;-68
2021/01/30 03:53:42;;;;;;;;;;;8.50;99.90;;;;;;10538545;28;19951;-68
2021/01/30 03:58:45;;;;;;;;;;;8.50;99.90;;;;;;10539499;28;20324;-68
2021/01/30 04:03:49;;;;;;;;;;;8.50;99.90;;;;;;10536445;28;19974;-68
2021/01/30 04:08:50;;;;;;;;;;;8.60;99.90;;;;;;10532472;28;20271;-69
2021/01/30 04:13:52;;;;;;;;;;;8.50;99.90;;;;;;10531445;28;20031;-68
2021/01/30 04:18:54;;;;;;;;;;;8.60;99.90;;;;;;10492570;28;20420;-68
2021/01/30 04:23:55;;;;;;;;;;;8.70;99.90;;;;;;10531859;28;19955;-68
2021/01/30 04:28:56;;;;;;;;;;;8.60;99.90;;;;;;10530869;28;19931;-68
2021/01/30 04:33:58;;;;;;;;;;;8.70;99.90;;;;;;10489292;28;19938;-68
2021/01/30 04:39:00;;;;;;;;;;;8.70;99.90;;;;;;10531018;28;20384;-68
2021/01/30 04:44:04;;;;;;;;;;;8.70;99.90;;;;;;10530159;28;19947;-68
2021/01/30 04:49:11;;;;;;;;;;;8.70;99.90;;;;;;10531119;28;19935;-68
2021/01/30 04:54:16;;;;;;;;;;;8.70;99.90;;;;;;10530493;28;20018;-68
2021/01/30 04:59:36;;;;;;;;;;;8.70;99.90;;;;;;10529092;28;19967;-68
2021/01/30 05:04:41;;;;;;;;;;;8.70;99.90;;;;;;10530513;28;19924;-69
2021/01/30 05:09:45;;;;;;;;;;;8.70;99.90;;;;;;10530016;28;20362;-68
2021/01/30 05:15:05;;;;;;;;;;;8.80;99.90;;;;;;10529355;28;19927;-68
2021/01/30 05:20:08;;;;;;;;;;;8.80;99.90;;;;;;10529289;28;19924;-68
2021/01/30 05:25:21;;;;;;;;;;;8.80;99.90;;;;;;10529808;28;19990;-69
2021/01/30 05:30:41;;;;;;;;;;;8.80;99.90;;;;;;10528158;28;20390;-68
2021/01/30 05:36:21;;;;;;;;;;;8.90;99.90;;;;;;10529665;28;20040;-68
2021/01/30 05:41:22;;;;;;;;;;;8.90;99.90;;;;;;10399721;28;19929;-68
2021/01/30 05:46:25;;;;;;;;;;;8.70;99.90;;;;;;10495613;28;19977;-68
2021/01/30 05:51:31;;;;;;;;;;;8.70;99.90;;;;;;10528739;28;19930;-68
2021/01/30 05:56:38;;;;;;;;;;;8.80;99.90;;;;;;10527323;28;20022;-69
2021/01/30 06:01:39;;;;;;;;;;;8.80;99.90;;;;;;10528806;28;19929;-68
2021/01/30 06:06:52;;;;;;;;;;;8.70;99.90;;;;;;10527443;28;19924;-68
2021/01/30 06:11:57;;;;;;;;;;;8.70;99.90;;;;;;10528352;28;19970;-68
2021/01/30 06:16:59;;;;;;;;;;;8.70;99.90;;;;;;10528503;28;20357;-68
2021/01/30 06:22:10;;;;;;;;;;;8.70;99.90;;;;;;10528450;28;19993;-69
2021/01/30 06:27:13;;;;;;;;;;;8.60;99.90;;;;;;10528345;28;19978;-69
2021/01/30 06:32:20;;;;;;;;;;;8.60;99.90;;;;;;10534114;28;19978;-69
2021/01/30 06:37:40;;;;;;;;;;;8.60;99.90;;;;;;10536301;28;19928;-69
2021/01/30 06:42:42;;;;;;;;;;;8.70;99.90;;;;;;10536380;28;19924;-68
2021/01/30 06:47:47;;;;;;;;;;;8.60;99.90;;;;;;10535242;28;20462;-68
2021/01/30 06:52:49;;;;;;;;;;;8.50;99.90;;;;;;10535875;28;19924;-68
2021/01/30 06:57:59;;;;;;;;;;;8.40;99.90;;;;;;10534940;28;19934;-68
2021/01/30 07:03:05;;;;;;;;;;;8.30;99.90;;;;;;10535227;28;19939;-68
2021/01/30 07:08:27;;;;;;;;;;;8.20;99.90;;;;;;10493152;28;19929;-68
2021/01/30 07:13:38;;;;;;;;;;;8.00;99.90;;;;;;10527273;28;19978;-69
2021/01/30 07:18:52;;;;;;;;;;;7.90;99.90;;;;;;10533958;28;19924;-69
2021/01/30 07:24:15;;;;;;;;;;;7.80;99.90;;;;;;10534450;28;19924;-69
2021/01/30 07:29:16;;;;;;;;;;;7.80;99.90;;;;;;10533891;28;19999;-69
2021/01/30 07:34:24;;;;;;;;;;;7.80;99.90;;;;;;10532373;28;19927;-68
2021/01/30 07:39:25;;;;;;;;;;;7.90;99.90;;;;;;10532847;28;19924;-68
2021/01/30 07:44:30;;;;;;;;;;;7.90;99.90;;;;;;10532979;28;20019;-68
2021/01/30 07:49:34;;;;;;;;;;;7.80;99.90;;;;;;10533232;28;19931;-68
2021/01/30 07:54:43;;;;;;;;;;;7.70;99.90;;;;;;10531047;28;20443;-69
2021/01/30 07:59:55;;;;;;;;;;;7.80;99.90;;;;;;10531216;28;20336;-68
2021/01/30 08:05:02;;;;;;;;;;;7.80;99.90;;;;;;10532851;28;19963;-69
2021/01/30 08:10:13;;;;;;;;;;;7.70;99.90;;;;;;10531214;28;20040;-69
2021/01/30 08:15:20;;;;;;;;;;;7.70;99.90;;;;;;10529524;28;19928;-69
2021/01/30 08:20:48;;;;;;;;;;;7.70;99.90;;;;;;10531359;28;20406;-69
2021/01/30 08:25:58;;;;;;;;;;;7.50;99.90;;;;;;10501243;28;20379;-69
2021/01/30 08:30:59;;;;;;;;;;;7.40;99.90;;;;;;10516186;28;19928;-69
2021/01/30 08:36:01;;;;;;;;;;;7.30;99.90;;;;;;10512434;28;20360;-69
2021/01/30 08:41:31;;;;;;;;;;;7.30;99.90;;;;;;10529985;28;20404;-69
2021/01/30 08:46:34;;;;;;;;;;;7.20;99.90;;;;;;10522936;28;20212;-69
2021/01/30 08:51:36;;;;;;;;;;;7.00;99.90;;;;;;10522717;28;19967;-69
2021/01/30 08:56:51;;;;;;;;;;;7.00;99.90;;;;;;10497207;28;19985;-66
2021/01/30 09:01:52;;;;;;;;;;;7.10;99.90;;;;;;10527712;28;20345;-66
2021/01/30 09:06:55;;;;;;;;;;;7.30;99.90;;;;;;10526932;28;19934;-66
2021/01/30 09:11:59;;;;;;;;;;;6.80;99.90;;;;;;10526627;28;19924;-65
2021/01/30 09:17:16;;;;;;;;;;;5.80;99.90;;;;;;10527229;28;19928;-65
2021/01/30 09:22:30;;;;;;;;;;;5.00;99.90;;;;;;10522972;28;19932;-65
2021/01/30 09:27:32;;;;;;;;;;;4.60;99.90;;;;;;10531882;28;20022;-65
2021/01/30 09:32:40;;;;;;;;;;;4.50;99.90;;;;;;10527092;28;20023;-65
2021/01/30 09:37:43;;;;;;;;;;;4.10;99.90;;;;;;10527605;28;20014;-65
2021/01/30 09:42:54;;;;;;;;;;;3.90;99.90;;;;;;10527379;28;20388;-66
2021/01/30 09:47:56;;;;;;;;;;;4.10;99.90;;;;;;10521993;28;20023;-66
2021/01/30 09:53:12;;;;;;;;;;;4.30;99.90;;;;;;10525383;28;19935;-64
2021/01/30 09:58:18;;;;;;;;;;;4.20;99.90;;;;;;10524152;28;20296;-65
2021/01/30 10:03:21;;;;;;;;;;;4.10;99.90;;;;;;10528956;28;19927;-65
2021/01/30 10:08:26;;;;;;;;;;;3.90;99.90;;;;;;10531978;28;19931;-65
2021/01/30 10:13:28;;;;;;;;;;;3.80;99.90;;;;;;10532360;28;19939;-65
2021/01/30 10:18:32;;;;;;;;;;;3.70;99.90;;;;;;10532178;28;20015;-65
2021/01/30 10:23:35;;;;;;;;;;;3.60;99.90;;;;;;10516688;28;19924;-65
2021/01/30 10:28:40;;;;;;;;;;;3.60;99.90;;;;;;10534256;28;19935;-65
2021/01/30 10:33:46;;;;;;;;;;;3.90;99.90;;;;;;10534217;28;19934;-65
2021/01/30 10:38:49;;;;;;;;;;;4.00;99.90;;;;;;10535497;28;19924;-65
2021/01/30 10:43:55;;;;;;;;;;;4.10;99.90;;;;;;10531740;28;19928;-64
2021/01/30 10:49:07;;;;;;;;;;;3.80;99.90;;;;;;10534174;28;19924;-65
2021/01/30 10:54:28;;;;;;;;;;;3.70;99.90;;;;;;10520183;28;20594;-64
2021/01/30 10:59:39;;;;;;;;;;;3.70;99.90;;;;;;10491315;28;19947;-65
2021/01/30 11:04:40;;;;;;;;;;;3.80;99.90;;;;;;10492090;28;19924;-65
2021/01/30 11:09:42;;;;;;;;;;;3.60;99.90;;;;;;10495115;28;19931;-65
2021/01/30 11:14:43;;;;;;;;;;;3.50;99.90;;;;;;10529893;28;19928;-65
2021/01/30 11:19:45;;;;;;;;;;;3.60;99.90;;;;;;10533359;28;19968;-65
2021/01/30 11:24:48;;;;;;;;;;;3.60;99.90;;;;;;10508100;28;19925;-65
2021/01/30 11:29:49;;;;;;;;;;;4.10;99.90;;;;;;10530808;28;20015;-65
2021/01/30 11:34:55;;;;;;;;;;;4.10;99.90;;;;;;10520064;28;19924;-65
2021/01/30 11:40:01;;;;;;;;;;;4.00;99.90;;;;;;10531223;28;20372;-65
2021/01/30 11:45:03;;;;;;;;;;;4.10;99.90;;;;;;10531626;28;19927;-66
2021/01/30 11:50:05;;;;;;;;;;;3.90;99.90;;;;;;10531025;28;20388;-65
2021/01/30 11:55:07;;;;;;;;;;;3.70;99.90;;;;;;10529499;28;20027;-65
2021/01/30 12:00:08;;;;;;;;;;;3.50;99.90;;;;;;10529199;28;19928;-65
2021/01/30 12:05:12;;;;;;;;;;;3.70;99.90;;;;;;10530108;28;20462;-66
2021/01/30 12:10:14;;;;;;;;;;;4.00;99.90;;;;;;10530185;28;19928;-66
2021/01/30 12:15:15;;;;;;;;;;;3.60;99.90;;;;;;10529011;28;20000;-66
2021/01/30 12:20:21;;;;;;;;;;;3.70;99.90;;;;;;10528994;28;20022;-66
2021/01/30 12:25:22;;;;;;;;;;;3.90;99.90;;;;;;10528996;28;19928;-66
2021/01/30 12:30:25;;;;;;;;;;;3.80;99.90;;;;;;10525502;28;20014;-66
2021/01/30 12:35:28;;;;;;;;;;;3.60;99.90;;;;;;10516785;28;19932;-65
2021/01/30 12:40:32;;;;;;;;;;;3.80;99.90;;;;;;10513669;28;20381;-66
2021/01/30 12:45:35;;;;;;;;;;;3.70;99.90;;;;;;10495232;28;20293;-66
2021/01/30 12:50:38;;;;;;;;;;;4.00;99.90;;;;;;10521315;28;20023;-65
2021/01/30 12:55:40;;;;;;;;;;;3.90;99.90;;;;;;10528729;28;19977;-65
2021/01/30 13:00:41;;;;;;;;;;;3.90;99.90;;;;;;10526883;28;19960;-66
2021/01/30 13:05:43;;;;;;;;;;;3.80;99.90;;;;;;10527545;28;19977;-65
2021/01/30 13:10:45;;;;;;;;;;;3.40;99.90;;;;;;10529132;28;19931;-65
2021/01/30 13:15:46;;;;;;;;;;;3.60;99.90;;;;;;10527448;28;20391;-66
2021/01/30 13:20:47;;;;;;;;;;;3.40;99.90;;;;;;10518673;28;19932;-65
2021/01/30 13:25:49;;;;;;;;;;;3.70;99.90;;;;;;10528118;28;20015;-65
2021/01/30 13:30:50;;;;;;;;;;;3.70;99.90;;;;;;10526722;28;19928;-66
2021/01/30 13:35:54;;;;;;;;;;;3.80;99.90;;;;;;10516050;28;19931;-65
2021/01/30 13:40:55;;;;;;;;;;;3.90;99.90;;;;;;10504094;28;19986;-65
2021/01/30 13:45:56;;;;;;;;;;;3.90;99.90;;;;;;10527570;28;19981;-66
2021/01/30 13:50:58;;;;;;;;;;;3.90;99.90;;;;;;10525132;28;19963;-65
2021/01/30 13:55:59;;;;;;;;;;;3.50;99.90;;;;;;10526433;28;20019;-66
2021/01/30 14:01:01;;;;;;;;;;;3.50;99.90;;;;;;10526232;28;20561;-65
2021/01/30 14:06:02;;;;;;;;;;;3.40;99.90;;;;;;10526435;28;19928;-66
2021/01/30 14:11:04;;;;;;;;;;;3.60;99.90;;;;;;10536692;28;20025;-66
2021/01/30 14:16:05;;;;;;;;;;;3.60;99.90;;;;;;10528338;28;19924;-65
2021/01/30 14:21:07;;;;;;;;;;;3.60;99.90;;;;;;10525899;28;19932;-65
2021/01/30 14:26:08;;;;;;;;;;;3.60;99.90;;;;;;10526521;28;20018;-66
2021/01/30 14:31:11;;;;;;;;;;;3.40;99.90;;;;;;10524990;28;20342;-65
2021/01/30 14:36:13;;;;;;;;;;;3.20;99.90;;;;;;10534933;28;19931;-65
2021/01/30 14:41:14;;;;;;;;;;;3.20;99.90;;;;;;10517931;28;19964;-65
2021/01/30 14:46:16;;;;;;;;;;;3.40;99.90;;;;;;10554958;28;20015;-65
2021/01/30 14:51:17;;;;;;;;;;;3.60;99.90;;;;;;10515626;28;19931;-65
2021/01/30 14:56:19;;;;;;;;;;;3.60;99.90;;;;;;10532525;28;20039;-65
2021/01/30 15:01:20;;;;;;;;;;;3.50;99.90;;;;;;10531206;28;19928;-65
2021/01/30 15:06:21;;;;;;;;;;;3.60;99.90;;;;;;10531918;28;19928;-66
2021/01/30 15:11:23;;;;;;;;;;;3.40;99.90;;;;;;10531028;28;19995;-66
2021/01/30 15:16:25;;;;;;;;;;;3.40;99.90;;;;;;10531640;28;19924;-66
2021/01/30 15:21:26;;;;;;;;;;;3.50;99.90;;;;;;10530777;28;19977;-65
2021/01/30 15:26:34;;;;;;;;;;;3.30;99.90;;;;;;10527257;28;19928;-66
2021/01/30 15:31:36;;;;;;;;;;;3.40;99.90;;;;;;10528507;28;20010;-65
2021/01/30 15:36:39;;;;;;;;;;;3.20;99.90;;;;;;10526046;28;20020;-66
2021/01/30 15:41:40;;;;;;;;;;;3.40;99.90;;;;;;10513914;28;20246;-66
2021/01/30 15:46:43;;;;;;;;;;;3.40;99.90;;;;;;10526532;28;20330;-66
2021/01/30 15:51:48;;;;;;;;;;;3.30;99.90;;;;;;10526626;28;19924;-65
2021/01/30 15:56:50;;;;;;;;;;;3.10;99.90;;;;;;10513469;28;20070;-65
2021/01/30 16:01:51;;;;;;;;;;;3.20;99.90;;;;;;10530286;28;19924;-65
2021/01/30 16:06:53;;;;;;;;;;;3.20;99.90;;;;;;10522241;28;20272;-66
2021/01/30 16:11:54;;;;;;;;;;;3.10;99.90;;;;;;10520401;28;19993;-66
2021/01/30 16:16:56;;;;;;;;;;;3.00;99.90;;;;;;10509306;28;19971;-66
2021/01/30 16:21:58;;;;;;;;;;;3.00;99.90;;;;;;10529528;28;19931;-65
2021/01/30 16:27:03;;;;;;;;;;;3.00;99.90;;;;;;10528418;28;19924;-69
2021/01/30 16:32:05;;;;;;;;;;;3.00;99.90;;;;;;10528032;28;20019;-68
2021/01/30 16:37:06;;;;;;;;;;;3.00;99.90;;;;;;10528010;28;19964;-68
2021/01/30 16:42:08;;;;;;;;;;;3.00;99.90;;;;;;10515909;28;19924;-68
2021/01/30 16:47:09;;;;;;;;;;;3.00;99.90;;;;;;10527951;28;19928;-68
2021/01/30 16:52:12;;;;;;;;;;;3.10;99.90;;;;;;10527685;28;19985;-68
2021/01/30 16:57:14;;;;;;;;;;;3.10;99.90;;;;;;10526969;28;19928;-68
2021/01/30 17:02:16;;;;;;;;;;;3.00;99.90;;;;;;10528554;28;19960;-68
2021/01/30 17:07:17;;;;;;;;;;;2.90;99.90;;;;;;10527229;28;19967;-68
2021/01/30 17:12:19;;;;;;;;;;;3.00;99.90;;;;;;10527410;28;20366;-68
2021/01/30 17:17:20;;;;;;;;;;;3.10;99.90;;;;;;10526503;28;20387;-67
2021/01/30 17:22:22;;;;;;;;;;;2.80;99.90;;;;;;10526992;28;19971;-67
2021/01/30 17:27:23;;;;;;;;;;;3.00;99.90;;;;;;10526277;28;19928;-68
2021/01/30 17:32:24;;;;;;;;;;;2.90;99.90;;;;;;10525329;28;20010;-68
2021/01/30 17:37:26;;;;;;;;;;;2.90;99.90;;;;;;10525186;28;19938;-67
2021/01/30 17:42:31;;;;;;;;;;;3.00;99.90;;;;;;10506876;28;20297;-67
2021/01/30 17:47:33;;;;;;;;;;;2.90;99.90;;;;;;10527256;28;19924;-67
2021/01/30 17:52:34;;;;;;;;;;;2.90;99.90;;;;;;10502274;28;20396;-68
2021/01/30 17:57:36;;;;;;;;;;;3.00;99.90;;;;;;10523753;28;19935;-68
2021/01/30 18:02:38;;;;;;;;;;;2.90;99.90;;;;;;10527562;28;20275;-68
2021/01/30 18:07:39;;;;;;;;;;;2.80;99.90;;;;;;10527094;28;19977;-68
2021/01/30 18:12:41;;;;;;;;;;;2.90;99.90;;;;;;10527846;28;19924;-68
2021/01/30 18:17:42;;;;;;;;;;;2.90;99.90;;;;;;10521204;28;19924;-67
2021/01/30 18:22:44;;;;;;;;;;;2.80;99.90;;;;;;10527866;28;19975;-68
2021/01/30 18:27:47;;;;;;;;;;;2.90;99.90;;;;;;10535326;28;20412;-67
2021/01/30 18:32:48;;;;;;;;;;;3.00;99.90;;;;;;10536438;28;19964;-67
2021/01/30 18:37:50;;;;;;;;;;;2.90;99.90;;;;;;10534557;28;20386;-67
2021/01/30 18:42:52;;;;;;;;;;;3.00;99.90;;;;;;10530411;28;20435;-67
2021/01/30 18:47:53;;;;;;;;;;;3.10;99.90;;;;;;10535297;28;19928;-67
2021/01/30 18:52:55;;;;;;;;;;;3.00;99.90;;;;;;10533316;28;19971;-67
2021/01/30 18:57:57;;;;;;;;;;;2.90;99.90;;;;;;10535370;28;19928;-67
2021/01/30 19:03:00;;;;;;;;;;;3.10;99.90;;;;;;10534456;28;19928;-67
2021/01/30 19:08:02;;;;;;;;;;;3.10;99.90;;;;;;10535232;28;19971;-67
2021/01/30 19:13:05;;;;;;;;;;;3.10;99.90;;;;;;10533327;28;19975;-70
2021/01/30 19:18:06;;;;;;;;;;;3.00;99.90;;;;;;10534151;28;19925;-67
2021/01/30 19:23:10;;;;;;;;;;;3.00;99.90;;;;;;10533667;28;20014;-67
2021/01/30 19:28:15;;;;;;;;;;;3.00;99.90;;;;;;10533186;28;20035;-67
2021/01/30 19:33:16;;;;;;;;;;;2.90;99.90;;;;;;10533781;28;20028;-67
2021/01/30 19:38:22;;;;;;;;;;;2.90;99.90;;;;;;10531804;28;19963;-68
2021/01/30 19:43:27;;;;;;;;;;;2.90;99.90;;;;;;10533901;28;20368;-67
2021/01/30 19:48:29;;;;;;;;;;;2.80;99.90;;;;;;10492727;28;19924;-68
2021/01/30 19:53:31;;;;;;;;;;;2.70;99.90;;;;;;10492031;28;20282;-68
2021/01/30 19:58:33;;;;;;;;;;;2.50;99.90;;;;;;10515823;28;20326;-68
2021/01/30 20:03:35;;;;;;;;;;;2.60;99.90;;;;;;10533649;28;19924;-68
2021/01/30 20:08:36;;;;;;;;;;;2.60;99.90;;;;;;10533541;28;20016;-67
2021/01/30 20:13:38;;;;;;;;;;;2.70;99.90;;;;;;10531034;28;19924;-68
2021/01/30 20:18:39;;;;;;;;;;;2.80;99.90;;;;;;10531586;28;19932;-67
2021/01/30 20:23:40;;;;;;;;;;;2.60;99.90;;;;;;10531313;28;19924;-67
2021/01/30 20:28:42;;;;;;;;;;;2.60;99.90;;;;;;10530833;28;19963;-67
2021/01/30 20:33:45;;;;;;;;;;;2.50;99.90;;;;;;10530840;28;19924;-67
2021/01/30 20:38:47;;;;;;;;;;;2.50;99.90;;;;;;10531178;28;19924;-67
2021/01/30 20:43:51;;;;;;;;;;;2.60;99.90;;;;;;10530788;28;19932;-68
2021/01/30 20:48:55;;;;;;;;;;;2.50;99.90;;;;;;10529341;28;19958;-67
2021/01/30 20:53:57;;;;;;;;;;;2.60;99.90;;;;;;10530840;28;19970;-68
2021/01/30 20:58:58;;;;;;;;;;;2.60;99.90;;;;;;10528179;28;20007;-67
2021/01/30 21:03:59;;;;;;;;;;;2.80;99.90;;;;;;10528022;28;20026;-67
2021/01/30 21:09:01;;;;;;;;;;;2.80;99.90;;;;;;10529662;28;20417;-67
2021/01/30 21:14:03;;;;;;;;;;;2.70;99.90;;;;;;10529332;28;19924;-68
2021/01/30 21:19:04;;;;;;;;;;;2.60;99.90;;;;;;10528464;28;19935;-67
2021/01/30 21:24:06;;;;;;;;;;;2.60;99.90;;;;;;10528454;28;20388;-68
2021/01/30 21:29:07;;;;;;;;;;;2.80;99.90;;;;;;10527950;28;19970;-67
2021/01/30 21:34:09;;;;;;;;;;;2.70;99.90;;;;;;10528823;28;19959;-67
2021/01/30 21:39:10;;;;;;;;;;;2.70;99.90;;;;;;10528740;28;19986;-67
2021/01/30 21:44:12;;;;;;;;;;;2.70;99.90;;;;;;10528185;28;20342;-67
2021/01/30 21:49:14;;;;;;;;;;;2.60;99.90;;;;;;10528412;28;19971;-67
2021/01/30 21:54:15;;;;;;;;;;;2.60;99.90;;;;;;10527844;28;20038;-67
2021/01/30 21:59:17;;;;;;;;;;;2.60;99.90;;;;;;10529053;28;20346;-67
2021/01/30 22:04:18;;;;;;;;;;;2.70;99.90;;;;;;10537209;28;20011;-67
2021/01/30 22:09:31;;;;;;;;;;;2.60;99.90;;;;;;10496031;28;19928;-67
2021/01/30 22:14:32;;;;;;;;;;;2.60;99.90;;;;;;10536490;28;19978;-67
2021/01/30 22:19:33;;;;;;;;;;;2.40;99.90;;;;;;10537227;28;20019;-67
2021/01/30 22:24:35;;;;;;;;;;;2.40;99.90;;;;;;10534340;28;20460;-68
2021/01/30 22:29:36;;;;;;;;;;;2.50;99.90;;;;;;10534957;28;19946;-67
2021/01/30 22:34:38;;;;;;;;;;;2.30;99.90;;;;;;10535865;28;20028;-67
2021/01/30 22:39:39;;;;;;;;;;;2.30;99.90;;;;;;10533822;28;19955;-67
2021/01/30 22:44:40;;;;;;;;;;;2.30;99.90;;;;;;10535193;28;19937;-67
2021/01/30 22:49:41;;;;;;;;;;;2.40;99.90;;;;;;10536111;28;20360;-67
2021/01/30 22:54:43;;;;;;;;;;;2.40;99.90;;;;;;10534917;28;19924;-67
2021/01/30 22:59:46;;;;;;;;;;;2.40;99.90;;;;;;10534281;28;20046;-67
2021/01/30 23:04:47;;;;;;;;;;;2.40;99.90;;;;;;10535078;28;20124;-67
2021/01/30 23:09:48;;;;;;;;;;;2.40;99.90;;;;;;10533323;28;20027;-67
2021/01/30 23:14:50;;;;;;;;;;;2.20;99.90;;;;;;10535245;27;19975;-67
2021/01/30 23:19:51;;;;;;;;;;;2.30;99.90;;;;;;10522795;28;19927;-67
2021/01/30 23:24:54;;;;;;;;;;;2.40;99.90;;;;;;10533383;28;20101;-67
2021/01/30 23:29:55;;;;;;;;;;;2.50;99.90;;;;;;10532423;28;19928;-67
2021/01/30 23:34:57;;;;;;;;;;;2.60;99.90;;;;;;10533120;28;19985;-67
2021/01/30 23:39:58;;;;;;;;;;;2.50;99.90;;;;;;10532902;28;20371;-67
2021/01/30 23:45:00;;;;;;;;;;;2.60;99.90;;;;;;10532658;28;19985;-67
2021/01/30 23:50:02;;;;;;;;;;;2.70;99.90;;;;;;10532235;28;19924;-67
2021/01/30 23:55:05;;;;;;;;;;;2.50;99.90;;;;;;10532344;28;19924;-67
